Time;durP1;ratioP1;P1;durP2;ratioP2;P2;SDS_P1;SDS_P2;PMS_P1;PMS_P2;Temp;Humidity;BMP_temperature;BMP_pressure;BME280_temperature;BME280_humidity;BME280_pressure;Samples;Min_cycle;Max_cycle;Signal;HPM_P1;HPM_P2
2022/10/11 00:00:51;;;;;;;;;23.00;17.25;;;;;21.29;53.96;101520.59;5072782;28;45266;-61
2022/10/11 00:03:16;;;;;;;;;17.50;14.75;;;;;21.29;53.84;101527.69;5080662;28;45439;-61
2022/10/11 00:05:42;;;;;;;;;16.25;15.00;;;;;21.29;54.21;101527.69;5062214;28;45379;-60
2022/10/11 00:08:08;;;;;;;;;13.25;13.00;;;;;21.29;54.15;101531.22;5079125;28;46245;-60
2022/10/11 00:10:34;;;;;;;;;17.50;13.50;;;;;21.29;54.17;101531.22;5079440;28;45423;-61
2022/10/11 00:12:59;;;;;;;;;13.75;12.75;;;;;21.30;54.02;101540.03;5059450;28;61800;-61
2022/10/11 00:15:25;;;;;;;;;20.50;14.75;;;;;21.29;53.97;101535.66;5071625;28;61451;-61
2022/10/11 00:17:50;;;;;;;;;17.25;15.00;;;;;21.29;53.92;101533.84;5080194;28;46044;-61
2022/10/11 00:20:16;;;;;;;;;18.25;16.00;;;;;21.28;54.08;101536.53;5081232;28;45177;-61
2022/10/11 00:22:41;;;;;;;;;19.00;15.50;;;;;21.28;54.07;101534.75;5079345;28;45239;-61
2022/10/11 00:25:08;;;;;;;;;17.00;14.00;;;;;21.28;53.97;101537.41;5062137;28;45233;-61
2022/10/11 00:27:33;;;;;;;;;14.50;13.50;;;;;21.28;54.21;101537.41;5078984;28;45319;-61
2022/10/11 00:29:59;;;;;;;;;16.25;14.00;;;;;21.28;53.84;101542.69;5080525;28;45188;-61
2022/10/11 00:32:24;;;;;;;;;19.75;14.25;;;;;21.26;54.07;101544.50;5079024;28;45355;-60
2022/10/11 00:34:50;;;;;;;;;15.25;14.00;;;;;21.27;53.99;101545.41;5067415;28;45410;-61
2022/10/11 00:37:15;;;;;;;;;17.75;14.00;;;;;21.27;53.94;101548.94;5077515;28;68328;-61
2022/10/11 00:39:41;;;;;;;;;13.25;12.00;;;;;21.28;53.69;101549.81;5079824;28;56756;-60
2022/10/11 00:42:14;;;;;;;;;13.50;12.25;;;;;21.27;53.89;101546.28;5080019;28;46480;-60
2022/10/11 00:44:41;;;;;;;;;16.00;14.00;;;;;21.27;53.76;101548.06;5079228;28;45269;-61
2022/10/11 00:47:14;;;;;;;;;14.75;11.50;;;;;21.27;53.47;101548.94;5078739;28;45429;-62
2022/10/11 00:49:46;;;;;;;;;14.75;14.50;;;;;21.27;54.02;101546.28;5079210;28;45325;-59
2022/10/11 00:52:40;;;;;;;;;16.50;14.50;;;;;21.27;53.80;101548.94;5080453;28;45173;-62
2022/10/11 00:55:11;;;;;;;;;14.25;14.00;;;;;21.28;53.96;101555.97;5052342;28;45630;-61
2022/10/11 00:57:38;;;;;;;;;15.50;14.00;;;;;21.27;53.82;101553.38;5070986;28;47156;-61
2022/10/11 01:00:09;;;;;;;;;16.25;12.50;;;;;21.26;53.65;101547.16;5078433;28;45342;-61
2022/10/11 01:02:34;;;;;;;;;17.25;15.25;;;;;21.26;53.88;101544.50;5065545;28;45319;-61
2022/10/11 01:05:00;;;;;;;;;18.25;16.75;;;;;21.26;53.81;101556.91;5082249;28;45263;-61
2022/10/11 01:07:29;;;;;;;;;16.50;15.50;;;;;21.25;53.76;101550.72;5070345;28;46117;-61
2022/10/11 01:09:55;;;;;;;;;17.00;17.00;;;;;21.25;53.44;101548.06;5068064;28;45346;-61
2022/10/11 01:12:22;;;;;;;;;13.00;13.00;;;;;21.27;53.57;101556.03;5068795;28;45333;-61
2022/10/11 01:14:54;;;;;;;;;14.50;12.75;;;;;21.25;53.53;101553.38;5069996;28;45509;-61
2022/10/11 01:17:39;;;;;;;;;14.75;12.75;;;;;21.26;53.39;101548.94;5083016;28;45813;-59
2022/10/11 01:20:08;;;;;;;;;14.00;13.50;;;;;21.25;53.30;101555.16;5067012;28;45342;-61
2022/10/11 01:23:11;;;;;;;;;16.25;15.25;;;;;21.24;53.40;101548.97;5083076;28;45281;-60
2022/10/11 01:25:52;;;;;;;;;19.00;17.00;;;;;21.23;53.42;101552.53;5068091;28;45341;-61
2022/10/11 01:28:50;;;;;;;;;17.00;15.75;;;;;21.23;53.45;101551.66;5066091;28;47329;-61
2022/10/11 01:31:19;;;;;;;;;16.00;14.25;;;;;21.23;53.30;101552.53;5081855;28;45439;-61
2022/10/11 01:33:53;;;;;;;;;17.25;14.50;;;;;21.24;53.19;101556.06;5068514;28;45484;-60
2022/10/11 01:36:48;;;;;;;;;17.25;16.25;;;;;21.23;53.21;101556.97;5065429;28;45199;-61
2022/10/11 01:39:24;;;;;;;;;20.75;17.25;;;;;21.22;53.11;101556.09;5069720;28;45529;-60
2022/10/11 01:41:52;;;;;;;;;16.50;14.25;;;;;21.22;53.34;101555.22;5045721;28;45232;-61
2022/10/11 01:44:17;;;;;;;;;20.25;15.25;;;;;21.20;53.31;101549.97;5054576;28;45308;-60
2022/10/11 01:46:43;;;;;;;;;17.50;15.25;;;;;21.20;53.13;101552.63;5077934;28;62355;-60
2022/10/11 01:49:08;;;;;;;;;18.25;13.25;;;;;21.21;53.31;101553.50;5062526;28;48111;-61
2022/10/11 01:51:38;;;;;;;;;20.50;14.25;;;;;21.20;53.50;101559.69;5062120;28;45263;-60
2022/10/11 01:54:25;;;;;;;;;14.25;14.00;;;;;21.20;52.96;101560.59;5061282;28;45309;-60
2022/10/11 01:57:23;;;;;;;;;20.00;15.75;;;;;21.19;53.24;101553.50;5062315;28;46785;-61
2022/10/11 02:00:05;;;;;;;;;4.75;4.00;;;;;21.20;53.01;101554.38;5065685;28;46322;-61
2022/10/11 02:02:42;;;;;;;;;16.00;14.00;;;;;21.18;53.04;101552.63;5082829;28;45309;-61
2022/10/11 02:05:26;;;;;;;;;16.50;16.50;;;;;21.19;52.87;101553.50;5082864;28;45453;-61
2022/10/11 02:08:03;;;;;;;;;16.50;14.50;;;;;21.20;53.10;101551.72;5082604;28;45349;-61
2022/10/11 02:10:47;;;;;;;;;15.50;11.75;;;;;21.20;53.32;101549.06;5082598;28;45313;-60
2022/10/11 02:13:25;;;;;;;;;17.75;13.00;;;;;21.20;53.03;101543.75;5050729;28;45595;-60
2022/10/11 02:15:50;;;;;;;;;15.75;14.50;;;;;21.18;53.27;101547.31;5063040;28;45365;-60
2022/10/11 02:18:19;;;;;;;;;15.50;13.75;;;;;21.18;52.74;101547.31;5052633;28;45397;-60
2022/10/11 02:20:45;;;;;;;;;13.00;11.00;;;;;21.18;53.02;101546.44;5062101;28;45277;-60
2022/10/11 02:23:32;;;;;;;;;15.50;12.25;;;;;21.17;53.02;101545.56;5052515;28;45194;-61
2022/10/11 02:25:57;;;;;;;;;16.25;13.75;;;;;21.16;52.78;101549.13;5075725;28;45347;-61
2022/10/11 02:28:27;;;;;;;;;14.00;14.00;;;;;21.16;52.95;101542.94;5061986;28;45502;-61
2022/10/11 02:30:52;;;;;;;;;17.00;13.00;;;;;21.16;53.06;101542.94;5062799;28;45254;-61
2022/10/11 02:33:20;;;;;;;;;14.00;12.25;;;;;21.16;52.84;101543.81;5080909;28;45197;-61
2022/10/11 02:35:48;;;;;;;;;13.50;11.25;;;;;21.16;52.80;101542.94;5063884;28;45470;-61
2022/10/11 02:38:25;;;;;;;;;17.25;13.25;;;;;21.15;52.79;101546.53;5069236;28;45342;-61
2022/10/11 02:40:54;;;;;;;;;13.00;11.50;;;;;21.14;52.60;101553.63;5050708;28;47367;-61
2022/10/11 02:43:32;;;;;;;;;14.00;11.50;;;;;21.15;52.62;101549.19;5063950;28;45294;-61
2022/10/11 02:46:00;;;;;;;;;11.00;10.75;;;;;21.16;52.80;101559.75;5064230;28;45518;-61
2022/10/11 02:48:28;;;;;;;;;13.25;12.00;;;;;21.15;52.80;101547.41;5046964;28;45429;-61
2022/10/11 02:50:54;;;;;;;;;14.25;12.75;;;;;21.16;52.90;101550.91;5063759;28;46257;-61
2022/10/11 02:53:20;;;;;;;;;14.00;11.75;;;;;21.15;52.85;101557.13;5080544;28;45275;-61
2022/10/11 02:55:46;;;;;;;;;10.50;10.50;;;;;21.15;52.86;101558.00;5043684;28;45259;-61
2022/10/11 02:58:11;;;;;;;;;12.50;11.25;;;;;21.16;52.66;101553.56;5074206;28;45377;-61
2022/10/11 03:00:36;;;;;;;;;17.25;13.25;;;;;21.15;52.69;101565.97;5070827;28;63160;-61
2022/10/11 03:03:02;;;;;;;;;11.00;9.00;;;;;21.14;52.69;101550.97;5080645;28;67608;-61
2022/10/11 03:05:27;;;;;;;;;14.25;12.50;;;;;21.14;52.23;101550.97;5069951;28;55161;-61
2022/10/11 03:07:52;;;;;;;;;11.00;10.25;;;;;21.13;52.50;101554.53;5077079;28;63423;-61
2022/10/11 03:10:18;;;;;;;;;14.00;11.75;;;;;21.12;52.44;101563.41;5072081;28;46106;-61
2022/10/11 03:12:43;;;;;;;;;16.25;15.50;;;;;21.13;52.53;101558.97;5059388;28;58844;-61
2022/10/11 03:15:09;;;;;;;;;13.75;13.25;;;;;21.13;52.44;101559.84;5059982;28;45530;-61
2022/10/11 03:17:34;;;;;;;;;12.75;11.75;;;;;21.13;52.58;101557.19;5059653;28;45516;-61
2022/10/11 03:20:00;;;;;;;;;10.25;10.25;;;;;21.14;52.60;101561.56;5061209;28;45316;-61
2022/10/11 03:22:25;;;;;;;;;11.75;9.25;;;;;21.13;52.70;101551.88;5072937;28;45375;-61
2022/10/11 03:24:50;;;;;;;;;15.00;12.50;;;;;21.13;52.48;101561.63;5060581;28;59897;-61
2022/10/11 03:27:16;;;;;;;;;12.50;12.50;;;;;21.12;52.09;101565.19;5060318;28;61414;-61
2022/10/11 03:29:41;;;;;;;;;12.25;10.50;;;;;21.11;52.85;101561.66;5061128;28;46143;-61
2022/10/11 03:32:07;;;;;;;;;13.25;11.25;;;;;21.11;52.32;101568.72;5060006;28;64573;-61
2022/10/11 03:34:32;;;;;;;;;13.00;12.00;;;;;21.09;52.43;101560.78;5061030;28;45428;-61
2022/10/11 03:36:57;;;;;;;;;13.25;11.00;;;;;21.10;52.42;101575.81;5060048;28;62192;-61
2022/10/11 03:39:23;;;;;;;;;11.00;10.25;;;;;21.10;52.16;101574.94;5060912;28;45238;-61
2022/10/11 03:41:48;;;;;;;;;13.75;10.25;;;;;21.10;52.25;101569.63;5060731;28;45211;-61
2022/10/11 03:44:14;;;;;;;;;10.75;9.00;;;;;21.09;52.40;101573.19;5067636;28;45922;-61
2022/10/11 03:46:39;;;;;;;;;8.25;7.75;;;;;21.09;52.58;101573.19;5078871;28;45247;-61
2022/10/11 03:49:04;;;;;;;;;13.00;11.00;;;;;21.08;52.33;101574.97;5060086;28;63222;-61
2022/10/11 03:51:30;;;;;;;;;11.50;9.00;;;;;21.09;52.38;101574.06;5059681;28;58629;-61
2022/10/11 03:53:57;;;;;;;;;12.75;9.75;;;;;21.09;52.36;101579.38;5060735;28;45381;-60
2022/10/11 03:56:22;;;;;;;;;13.75;10.00;;;;;21.08;52.21;101574.97;5060342;28;45327;-60
2022/10/11 03:58:48;;;;;;;;;10.00;10.00;;;;;21.08;52.09;101574.09;5050379;28;57882;-60
2022/10/11 04:01:13;;;;;;;;;10.75;8.25;;;;;21.08;52.43;101587.38;5078989;28;51678;-60
2022/10/11 04:03:38;;;;;;;;;12.50;9.00;;;;;21.08;52.37;101584.72;5062727;28;45555;-61
2022/10/11 04:06:04;;;;;;;;;9.25;8.25;;;;;21.07;52.37;101581.19;5075647;28;45753;-61
2022/10/11 04:08:30;;;;;;;;;11.75;11.50;;;;;21.07;52.12;101590.94;5067653;28;46012;-60
2022/10/11 04:10:55;;;;;;;;;8.25;8.00;;;;;21.07;52.03;101582.97;5077971;28;55773;-60
2022/10/11 04:13:20;;;;;;;;;11.50;10.25;;;;;21.07;52.11;101591.81;5060460;28;45398;-60
2022/10/11 04:15:46;;;;;;;;;8.00;7.50;;;;;21.07;52.06;101597.13;5060028;28;48605;-60
2022/10/11 04:18:11;;;;;;;;;10.00;7.00;;;;;21.07;52.13;101594.47;5059747;28;56456;-60
2022/10/11 04:20:37;;;;;;;;;11.25;10.00;;;;;21.06;52.31;101587.41;5072546;28;45624;-60
2022/10/11 04:23:02;;;;;;;;;7.25;7.25;;;;;21.06;51.97;101590.06;5060148;28;47684;-60
2022/10/11 04:25:27;;;;;;;;;13.50;11.25;;;;;21.07;52.25;101596.25;5059294;28;65781;-60
2022/10/11 04:27:53;;;;;;;;;11.00;8.00;;;;;21.06;51.75;101590.06;5058854;28;46114;-60
2022/10/11 04:30:18;;;;;;;;;9.00;7.50;;;;;21.06;51.97;101595.38;5059407;28;63143;-60
2022/10/11 04:32:44;;;;;;;;;10.00;9.00;;;;;21.07;51.84;101598.91;5060080;28;45242;-60
2022/10/11 04:35:09;;;;;;;;;8.75;8.00;;;;;21.08;51.60;101605.94;5059366;28;46119;-60
2022/10/11 04:37:34;;;;;;;;;11.00;8.25;;;;;21.07;51.93;101607.72;5059868;28;46028;-60
2022/10/11 04:40:00;;;;;;;;;12.50;8.75;;;;;21.06;51.84;101598.03;5059973;28;45202;-60
2022/10/11 04:42:25;;;;;;;;;9.50;8.25;;;;;21.05;51.92;101600.72;5060225;28;45525;-60
2022/10/11 04:44:51;;;;;;;;;9.00;9.00;;;;;21.06;52.00;101603.31;5071820;28;59081;-60
2022/10/11 04:47:16;;;;;;;;;11.50;7.75;;;;;21.05;52.01;101598.06;5059697;28;53366;-60
2022/10/11 04:49:41;;;;;;;;;12.75;8.25;;;;;21.05;51.51;101598.06;5071541;28;64346;-60
2022/10/11 04:52:07;;;;;;;;;8.00;7.50;;;;;21.03;51.75;101594.56;5059161;28;56828;-60
2022/10/11 04:54:32;;;;;;;;;10.00;7.50;;;;;21.03;51.89;101597.22;5058558;28;52220;-60
2022/10/11 04:56:57;;;;;;;;;8.25;8.25;;;;;21.02;52.04;101600.75;5059328;28;64761;-60
2022/10/11 04:59:23;;;;;;;;;11.75;7.75;;;;;21.02;51.68;101606.94;5071066;28;68395;-61
2022/10/11 05:01:48;;;;;;;;;8.00;8.00;;;;;21.03;51.66;101605.19;5059378;28;54787;-60
2022/10/11 05:04:14;;;;;;;;;9.25;7.00;;;;;21.03;51.87;101605.19;5059483;28;50193;-60
2022/10/11 05:06:39;;;;;;;;;11.25;10.50;;;;;21.02;51.98;101603.41;5040720;28;62581;-61
2022/10/11 05:09:04;;;;;;;;;9.25;7.75;;;;;21.03;51.58;101607.84;5059691;28;45390;-61
2022/10/11 05:11:30;;;;;;;;;7.25;6.50;;;;;21.02;52.00;101601.63;5058651;28;45303;-62
2022/10/11 05:13:55;;;;;;;;;10.25;8.00;;;;;21.03;51.85;101607.84;5071038;28;50080;-61
2022/10/11 05:16:21;;;;;;;;;5.75;5.75;;;;;21.02;51.63;101603.41;5059923;28;46087;-61
2022/10/11 05:18:46;;;;;;;;;6.00;5.00;;;;;21.02;51.79;101614.91;5059826;28;45153;-61
2022/10/11 05:21:25;;;;;;;;;6.25;6.25;;;;;21.02;51.65;101606.06;5073231;28;45260;-61
2022/10/11 05:23:51;;;;;;;;;11.75;7.75;;;;;21.02;51.86;101612.25;5071683;28;45453;-61
2022/10/11 05:26:17;;;;;;;;;8.00;6.00;;;;;21.02;51.79;101614.03;5059356;28;46523;-61
2022/10/11 05:28:42;;;;;;;;;8.00;7.00;;;;;21.01;51.82;101618.47;5053227;28;45502;-64
2022/10/11 05:31:07;;;;;;;;;6.25;6.25;;;;;21.00;51.72;101610.53;5079653;28;45254;-61
2022/10/11 05:33:33;;;;;;;;;10.50;7.50;;;;;21.01;51.97;101614.94;5059014;28;51302;-61
2022/10/11 05:35:59;;;;;;;;;7.00;6.00;;;;;21.00;51.82;101608.75;5061422;28;45964;-60
2022/10/11 05:38:25;;;;;;;;;8.00;6.00;;;;;21.00;52.05;101621.16;5057659;28;45294;-60
2022/10/11 05:40:51;;;;;;;;;6.75;6.25;;;;;21.01;51.95;101614.94;5059459;28;45342;-61
2022/10/11 05:43:16;;;;;;;;;8.00;6.00;;;;;21.00;52.15;101623.81;5066805;27;45422;-60
2022/10/11 05:45:42;;;;;;;;;7.25;6.00;;;;;21.00;52.28;101624.69;5058597;28;46282;-60
2022/10/11 05:48:07;;;;;;;;;7.75;7.75;;;;;21.00;52.30;101626.47;5043315;28;45232;-60
2022/10/11 05:50:33;;;;;;;;;6.00;5.50;;;;;20.99;52.77;101630.03;5076827;28;45215;-60
2022/10/11 05:52:58;;;;;;;;;8.50;7.50;;;;;20.99;53.03;101624.72;5081401;28;59377;-60
2022/10/11 05:55:24;;;;;;;;;11.00;9.75;;;;;21.00;53.26;101623.81;5079759;28;45436;-60
2022/10/11 05:57:53;;;;;;;;;9.00;9.00;;;;;20.99;53.21;101622.94;5063512;28;45220;-61
2022/10/11 06:00:19;;;;;;;;;4.00;3.25;;;;;20.99;53.55;101624.72;5044755;28;45317;-61
2022/10/11 06:02:44;;;;;;;;;7.00;5.50;;;;;20.98;53.79;101623.84;5063832;28;45512;-61
2022/10/11 06:05:09;;;;;;;;;7.25;6.50;;;;;20.98;53.72;101623.84;5056035;28;47438;-61
2022/10/11 06:07:36;;;;;;;;;7.25;6.50;;;;;21.00;54.01;101615.84;5074343;28;67492;-61
2022/10/11 06:10:02;;;;;;;;;6.75;6.75;;;;;20.99;54.00;101627.38;5068790;28;45276;-61
2022/10/11 06:12:28;;;;;;;;;12.00;7.00;;;;;21.00;54.35;101629.97;5063789;27;45307;-61
2022/10/11 06:14:54;;;;;;;;;11.00;7.50;;;;;21.00;54.58;101621.16;5060917;28;48650;-62
2022/10/11 06:17:19;;;;;;;;;7.50;7.50;;;;;21.00;54.30;101624.69;5064676;28;56561;-60
2022/10/11 06:19:45;;;;;;;;;9.00;7.50;;;;;21.01;54.54;101633.50;5063445;28;46207;-60
2022/10/11 06:22:11;;;;;;;;;8.50;7.25;;;;;21.00;54.31;101631.75;5060056;28;60208;-61
2022/10/11 06:24:36;;;;;;;;;8.50;7.00;;;;;21.00;54.51;101637.06;5061357;28;46159;-60
2022/10/11 06:27:01;;;;;;;;;10.00;8.75;;;;;21.00;54.64;101631.75;5079964;28;63022;-60
2022/10/11 06:29:27;;;;;;;;;12.50;7.25;;;;;21.00;54.94;101629.97;5073982;28;52120;-60
2022/10/11 06:31:52;;;;;;;;;7.75;7.75;;;;;21.00;54.82;101639.72;5060993;28;58006;-60
2022/10/11 06:34:17;;;;;;;;;9.75;8.00;;;;;21.01;54.77;101641.47;5060942;28;68458;-60
2022/10/11 06:36:43;;;;;;;;;7.75;7.50;;;;;21.01;54.82;101642.34;5076348;28;45431;-59
2022/10/11 06:39:08;;;;;;;;;10.50;6.50;;;;;21.01;54.78;101644.13;5070868;28;64651;-59
2022/10/11 06:41:33;;;;;;;;;14.50;11.75;;;;;21.01;54.51;101637.03;5072296;28;45454;-59
2022/10/11 06:43:59;;;;;;;;;8.75;7.00;;;;;21.00;54.79;101640.59;5051360;28;70815;-63
2022/10/11 06:46:25;;;;;;;;;12.75;9.50;;;;;21.02;54.52;101645.88;5076238;28;45485;-63
2022/10/11 06:48:51;;;;;;;;;13.50;9.75;;;;;21.01;55.00;101641.47;5059535;28;45538;-62
2022/10/11 06:51:18;;;;;;;;;9.75;8.00;;;;;21.02;54.81;101644.09;5070956;28;45368;-62
2022/10/11 06:53:47;;;;;;;;;12.75;9.50;;;;;21.01;54.74;101645.00;5074895;28;46180;-62
2022/10/11 06:56:13;;;;;;;;;9.00;7.50;;;;;21.00;54.80;101647.69;5071521;28;46658;-61
2022/10/11 06:58:38;;;;;;;;;12.00;11.25;;;;;21.01;54.99;101649.44;5073160;27;45370;-60
2022/10/11 07:01:08;;;;;;;;;11.75;10.25;;;;;21.01;54.74;101654.75;5067479;28;45423;-62
2022/10/11 07:03:34;;;;;;;;;9.50;8.75;;;;;21.02;54.74;101652.06;5071234;28;47079;-61
2022/10/11 07:06:11;;;;;;;;;16.00;11.00;;;;;21.03;54.61;101658.25;5074349;28;45677;-62
2022/10/11 07:08:36;;;;;;;;;10.50;8.50;;;;;21.03;54.51;101655.63;5074375;28;45235;-62
2022/10/11 07:11:03;;;;;;;;;12.75;11.25;;;;;21.03;54.77;101656.50;5076747;27;45322;-63
2022/10/11 07:13:29;;;;;;;;;14.00;10.25;;;;;21.03;54.96;101658.25;5069865;28;45958;-61
2022/10/11 07:15:54;;;;;;;;;10.75;9.50;;;;;21.03;54.75;101658.25;5076336;28;56341;-62
2022/10/11 07:18:21;;;;;;;;;11.75;8.25;;;;;21.02;54.50;101661.78;5061301;28;45404;-61
2022/10/11 07:20:46;;;;;;;;;12.00;9.50;;;;;21.03;54.70;101667.09;5048981;28;45517;-62
2022/10/11 07:23:11;;;;;;;;;11.00;9.00;;;;;21.03;54.89;101669.75;5065049;28;49950;-61
2022/10/11 07:25:37;;;;;;;;;10.00;9.00;;;;;21.02;54.76;101673.28;5054067;28;47379;-59
2022/10/11 07:28:03;;;;;;;;;9.75;8.25;;;;;21.01;54.56;101675.97;5046426;28;45271;-59
2022/10/11 07:30:28;;;;;;;;;10.75;8.25;;;;;21.01;54.66;101671.53;5064384;28;45422;-60
2022/10/11 07:32:53;;;;;;;;;11.25;9.75;;;;;21.01;54.88;101676.84;5070512;28;69750;-60
2022/10/11 07:35:19;;;;;;;;;10.00;8.00;;;;;21.02;54.41;101672.41;5068184;28;45316;-59
2022/10/11 07:37:44;;;;;;;;;12.00;9.25;;;;;21.01;54.38;101676.84;5067978;28;52049;-59
2022/10/11 07:40:10;;;;;;;;;12.50;7.75;;;;;21.01;54.62;101678.63;5070523;28;63789;-59
2022/10/11 07:42:35;;;;;;;;;8.75;8.75;;;;;21.02;54.74;101685.69;5066867;28;47071;-60
2022/10/11 07:45:01;;;;;;;;;11.00;8.00;;;;;21.02;54.54;101683.91;5061931;28;45255;-60
2022/10/11 07:47:26;;;;;;;;;11.00;9.50;;;;;21.02;54.66;101680.38;5068728;28;45334;-60
2022/10/11 07:49:52;;;;;;;;;10.75;7.50;;;;;21.03;54.58;101687.47;5063505;28;57313;-60
2022/10/11 07:52:17;;;;;;;;;13.00;8.00;;;;;21.02;54.39;101691.00;5065237;28;51486;-60
2022/10/11 07:54:42;;;;;;;;;10.50;7.00;;;;;21.02;54.81;101689.22;5069138;28;50257;-62
2022/10/11 07:57:08;;;;;;;;;10.75;9.50;;;;;21.02;54.52;101705.13;5075862;28;45328;-59
2022/10/11 07:59:33;;;;;;;;;12.75;11.50;;;;;21.02;54.24;101699.81;5070018;28;63199;-60
2022/10/11 08:01:59;;;;;;;;;13.75;8.75;;;;;21.03;54.19;101696.31;5069344;28;45611;-62
2022/10/11 08:04:24;;;;;;;;;13.25;8.00;;;;;21.05;54.50;101704.22;5029226;28;45819;-62
2022/10/11 08:06:50;;;;;;;;;8.00;8.00;;;;;21.05;54.38;101704.22;5064079;28;45361;-61
2022/10/11 08:09:15;;;;;;;;;12.25;8.00;;;;;21.05;54.35;101709.53;5064162;27;56244;-61
2022/10/11 08:11:40;;;;;;;;;11.50;9.25;;;;;21.05;53.89;101702.44;5062696;28;45406;-61
2022/10/11 08:14:07;;;;;;;;;12.00;8.25;;;;;21.04;54.25;101702.47;5059534;28;51003;-61
2022/10/11 08:16:37;;;;;;;;;10.00;8.50;;;;;21.06;53.72;101698.00;5078607;28;45637;-61
2022/10/11 08:19:02;;;;;;;;;13.75;10.25;;;;;21.05;53.97;101709.53;5077701;28;45485;-61
2022/10/11 08:21:28;;;;;;;;;10.50;10.50;;;;;21.05;53.60;101710.41;5069062;27;45436;-62
2022/10/11 08:23:53;;;;;;;;;13.50;11.75;;;;;21.04;54.21;101713.97;5074195;28;45339;-61
2022/10/11 08:26:19;;;;;;;;;8.50;8.00;;;;;21.04;54.10;101719.28;5060046;28;45884;-61
2022/10/11 08:28:44;;;;;;;;;11.00;8.75;;;;;21.05;53.94;101714.84;5077718;28;67857;-61
2022/10/11 08:31:13;;;;;;;;;10.25;9.00;;;;;21.03;54.00;101717.53;5070922;28;48899;-61
2022/10/11 08:33:39;;;;;;;;;9.25;7.75;;;;;21.04;54.04;101719.28;5060203;28;45228;-61
2022/10/11 08:36:04;;;;;;;;;9.25;8.75;;;;;21.04;53.83;101721.06;5067715;28;57561;-61
2022/10/11 08:38:30;;;;;;;;;14.50;9.25;;;;;21.04;54.03;101721.06;5074808;28;45499;-61
2022/10/11 08:40:56;;;;;;;;;11.50;9.75;;;;;21.05;54.01;101718.38;5074983;28;63599;-61
2022/10/11 08:43:31;;;;;;;;;7.25;6.25;;;;;21.06;53.88;101721.91;5063521;27;45347;-61
2022/10/11 08:45:58;;;;;;;;;12.25;8.00;;;;;21.06;53.93;101724.56;5079903;28;45631;-61
2022/10/11 08:48:37;;;;;;;;;8.75;8.75;;;;;21.07;53.91;101724.53;5060487;28;45320;-61
2022/10/11 08:51:20;;;;;;;;;14.75;12.50;;;;;21.10;53.87;101728.88;5070961;28;46131;-62
2022/10/11 08:53:59;;;;;;;;;14.25;12.00;;;;;21.11;53.54;101730.63;5069668;28;45276;-62
2022/10/11 08:56:24;;;;;;;;;13.00;10.75;;;;;21.10;53.67;101724.44;5056970;28;45761;-61
2022/10/11 08:58:55;;;;;;;;;11.75;9.25;;;;;21.10;53.62;101727.09;5061332;28;63161;-61
2022/10/11 09:01:25;;;;;;;;;7.75;7.75;;;;;21.10;53.62;101720.94;5058364;28;45522;-61
2022/10/11 09:03:50;;;;;;;;;13.25;11.50;;;;;21.11;53.60;101730.63;5065516;28;46927;-61
2022/10/11 09:06:20;;;;;;;;;12.50;9.75;;;;;21.11;53.53;101727.97;5068153;28;45351;-61
2022/10/11 09:09:01;;;;;;;;;10.00;8.50;;;;;21.10;53.53;101732.41;5071640;28;45444;-61
2022/10/11 09:11:47;;;;;;;;;9.50;8.00;;;;;21.09;53.68;101735.97;5063289;27;45281;-60
2022/10/11 09:14:21;;;;;;;;;8.75;7.75;;;;;21.07;53.80;101724.53;5077245;28;45325;-60
2022/10/11 09:17:17;;;;;;;;;8.00;7.50;;;;;21.07;53.67;101731.59;5072816;28;45481;-61
2022/10/11 09:20:01;;;;;;;;;12.00;10.00;;;;;21.07;53.71;101726.31;5056017;28;45485;-61
2022/10/11 09:22:54;;;;;;;;;12.75;9.00;;;;;21.07;53.63;101726.31;5066401;28;45421;-61
2022/10/11 09:25:23;;;;;;;;;13.75;9.75;;;;;21.09;53.32;101733.31;5070538;28;45368;-61
2022/10/11 09:28:05;;;;;;;;;5.25;5.25;;;;;21.08;51.30;101726.25;5065497;27;45311;-47
2022/10/11 09:30:30;;;;;;;;;8.75;6.00;;;;;20.99;50.62;101725.56;5057499;28;45471;-50
2022/10/11 09:33:01;;;;;;;;;9.25;5.00;;;;;20.80;49.60;101719.72;5063176;27;46501;-48
2022/10/11 09:35:27;;;;;;;;;6.00;4.75;;;;;20.60;49.88;101720.94;5065600;28;45284;-49
2022/10/11 09:38:31;;;;;;;;;9.00;6.25;;;;;20.35;50.13;101719.53;5063271;28;45181;-48
2022/10/11 09:41:17;;;;;;;;;5.50;5.50;;;;;20.14;48.99;101719.84;5045735;28;45528;-52
2022/10/11 09:43:47;;;;;;;;;5.00;3.75;;;;;19.93;48.98;101724.56;5074662;28;46120;-52
2022/10/11 09:46:42;;;;;;;;;7.50;5.00;;;;;19.70;50.20;101714.25;5065794;28;45354;-51
2022/10/11 09:49:14;;;;;;;;;6.00;5.50;;;;;19.60;50.06;101723.22;5049646;28;45536;-50
2022/10/11 09:51:45;;;;;;;;;4.75;4.75;;;;;19.51;50.31;101725.97;5073909;28;45380;-50
2022/10/11 09:54:10;;;;;;;;;6.25;6.25;;;;;19.46;51.94;101714.56;5081379;28;45365;-47
2022/10/11 09:56:41;;;;;;;;;8.50;6.00;;;;;19.46;51.66;101703.97;5078755;28;45363;-52
2022/10/11 09:59:17;;;;;;;;;9.25;6.00;;;;;19.43;51.41;101710.16;5063928;28;45501;-52
2022/10/11 10:01:43;;;;;;;;;13.75;7.75;;;;;19.41;50.84;101711.06;5079338;27;45343;-51
2022/10/11 10:04:13;;;;;;;;;6.25;5.50;;;;;19.36;51.23;101707.59;5062868;27;46560;-49
2022/10/11 10:06:38;;;;;;;;;9.00;5.75;;;;;19.27;50.71;101700.63;5072366;28;45479;-47
2022/10/11 10:09:25;;;;;;;;;6.00;4.00;;;;;19.17;50.68;101710.44;5070086;28;45422;-52
2022/10/11 10:11:50;;;;;;;;;5.50;5.50;;;;;19.09;51.44;101709.66;5066875;27;45466;-52
2022/10/11 10:14:24;;;;;;;;;8.25;6.75;;;;;19.03;50.96;101715.03;5051332;28;46188;-50
2022/10/11 10:17:07;;;;;;;;;5.75;5.75;;;;;18.95;51.66;101716.88;5068919;28;45836;-49
2022/10/11 10:19:38;;;;;;;;;6.00;4.00;;;;;18.91;51.66;101712.50;5077361;27;45466;-49
2022/10/11 10:22:04;;;;;;;;;8.25;4.75;;;;;18.92;51.45;101714.25;5061009;28;45382;-48
2022/10/11 10:24:37;;;;;;;;;6.00;5.75;;;;;18.89;52.30;101706.34;5072986;28;59489;-49
2022/10/11 10:27:22;;;;;;;;;7.25;5.50;;;;;18.91;51.38;101712.50;5063085;28;45489;-52
2022/10/11 10:30:09;;;;;;;;;6.50;5.25;;;;;18.93;52.34;101708.94;5063197;28;45578;-48
2022/10/11 10:33:03;;;;;;;;;8.50;5.50;;;;;18.95;51.25;101710.72;5060956;28;45460;-49
2022/10/11 10:35:30;;;;;;;;;8.00;6.00;;;;;18.92;51.84;101722.16;5045525;28;47374;-49
2022/10/11 10:38:01;;;;;;;;;9.25;6.00;;;;;18.89;51.62;101707.22;5075090;28;45365;-51
2022/10/11 10:40:35;;;;;;;;;9.50;7.00;;;;;18.88;51.86;101713.41;5064379;28;45223;-48
2022/10/11 10:43:00;;;;;;;;;8.50;6.00;;;;;18.88;52.78;101709.88;5076779;28;45432;-50
2022/10/11 10:45:29;;;;;;;;;5.50;5.50;;;;;18.88;51.82;101702.81;5079936;28;46047;-51
2022/10/11 10:48:03;;;;;;;;;9.00;6.75;;;;;18.89;52.76;101709.00;5080490;28;45292;-53
2022/10/11 10:50:43;;;;;;;;;6.00;5.00;;;;;18.90;52.16;101703.69;5080287;28;45353;-50
2022/10/11 10:53:11;;;;;;;;;6.50;6.50;;;;;18.93;52.02;101702.75;5065997;28;46126;-52
2022/10/11 10:55:44;;;;;;;;;8.00;8.00;;;;;18.93;51.97;101711.56;5063420;28;45560;-52
2022/10/11 10:58:24;;;;;;;;;8.25;8.25;;;;;18.95;52.85;101706.28;5060617;28;45427;-52
2022/10/11 11:00:57;;;;;;;;;5.75;5.00;;;;;18.99;52.01;101710.66;5065197;28;45329;-53
2022/10/11 11:03:31;;;;;;;;;6.50;5.50;;;;;19.04;52.18;101703.56;5072230;28;45498;-54
2022/10/11 11:06:06;;;;;;;;;7.25;7.25;;;;;19.03;51.96;101701.81;5059802;28;47700;-53
2022/10/11 11:08:38;;;;;;;;;6.50;5.75;;;;;19.06;54.54;101706.19;5061171;28;45480;-57
2022/10/11 11:11:45;;;;;;;;;4.50;4.25;;;;;19.09;56.16;101707.00;5072705;28;45264;-56
2022/10/11 11:14:25;;;;;;;;;5.00;4.25;;;;;19.15;56.63;101703.44;5032584;28;45255;-55
2022/10/11 11:17:22;;;;;;;;;5.75;5.25;;;;;19.25;57.19;101706.84;5076850;28;45416;-56
2022/10/11 11:20:06;;;;;;;;;6.00;6.00;;;;;19.31;57.71;101691.78;5049808;28;46289;-54
2022/10/11 11:22:41;;;;;;;;;6.50;5.25;;;;;19.39;57.95;101695.22;5061000;28;45339;-56
2022/10/11 11:25:23;;;;;;;;;6.75;5.75;;;;;19.45;58.12;101689.81;5049158;28;45295;-55
2022/10/11 11:28:33;;;;;;;;;8.00;5.75;;;;;19.54;58.72;101695.91;5061288;28;46264;-57